New Boston, Missouri
Current Conditions -  °F | °C
As of 9:02 AM on Thursday 18 Dec 2014 (Local Time) from KIRK Reporting Station
Light Snow Light Snow  
Wind Chill: 19°   Ceiling: 2900
Heat Index: 26°   Visibility: 1.2mi
Dew Point: 24°   Wind: 6mph
Humidity: 92%   Direction: 80°E
Pressure: 30.28"   Gusts: NA
Location:  39.95°N, 92.86°W
Report Text: KIRK 181502Z AUTO 08005KT 1 1/4SM -SN BR BKN029 OVC039 M03/M04 A3028 RMK AO2 P0000 T10331044
Loading
Personal Weather Stations






























Interactive Weather Map New forecast layout! Learn more

10-Day Weather Forecast

Advertisements
Track Severe Weather on mobile